createdAt,value
2022-10-17T00:02:16.299Z,102321.22
2022-10-17T00:05:22.352Z,102324.25
2022-10-17T00:08:28.071Z,102326.97
2022-10-17T00:11:34.054Z,102333.22
2022-10-17T00:14:39.721Z,102323.81
2022-10-17T00:17:45.654Z,102329.66
2022-10-17T00:20:52.174Z,102331.38
2022-10-17T00:23:57.542Z,102331.03
2022-10-17T00:27:04.331Z,102332.91
2022-10-17T00:30:14.817Z,102327.44
2022-10-17T00:33:20.370Z,102334.44
2022-10-17T00:36:27.345Z,102346.03
2022-10-17T00:39:33.193Z,102343.53
2022-10-17T00:42:39.847Z,102344.16
2022-10-17T00:45:45.691Z,102358.94
2022-10-17T00:48:54.915Z,102350.03
2022-10-17T00:52:03.618Z,102342.72
2022-10-17T00:55:21.267Z,102351.22
2022-10-17T00:58:27.883Z,102350.34
2022-10-17T01:01:33.660Z,102350.56
2022-10-17T01:04:42.617Z,102353.56
2022-10-17T01:07:51.481Z,102345.44
2022-10-17T01:11:31.826Z,102341.91
2022-10-17T01:14:59.145Z,102341.59
2022-10-17T01:18:34.223Z,102337.28
2022-10-17T01:22:04.660Z,102337.66
2022-10-17T01:25:47.225Z,102337.13
2022-10-17T01:29:06.920Z,102338.03
2022-10-17T01:32:51.354Z,102338.84
2022-10-17T01:36:06.493Z,102331.97
2022-10-17T01:39:32.531Z,102329.19
2022-10-17T01:42:41.643Z,102338.75
2022-10-17T01:46:12.349Z,102340.56
2022-10-17T01:49:25.054Z,102332.53
2022-10-17T01:52:57.685Z,102336.75
2022-10-17T01:56:10.023Z,102335.94
2022-10-17T01:59:39.921Z,102336.25
2022-10-17T02:02:49.415Z,102332.53
2022-10-17T02:06:13.648Z,102329.31
2022-10-17T02:09:24.758Z,102331.59
2022-10-17T02:12:57.990Z,102317.00
2022-10-17T02:16:14.514Z,102318.31
2022-10-17T02:19:48.230Z,102317.59
2022-10-17T02:23:34.217Z,102310.34
2022-10-17T02:27:05.836Z,102316.22
2022-10-17T02:30:23.845Z,102312.03
2022-10-17T02:33:52.154Z,102313.31
2022-10-17T02:37:02.416Z,102309.59
2022-10-17T02:40:28.256Z,102318.00
2022-10-17T02:43:37.610Z,102308.41
2022-10-17T02:47:09.659Z,102312.75
2022-10-17T02:50:16.177Z,102305.72
2022-10-17T02:53:43.661Z,102307.38
2022-10-17T02:57:05.994Z,102311.53
2022-10-17T03:00:31.424Z,102326.38
2022-10-17T03:03:36.878Z,102337.13
2022-10-17T03:07:01.156Z,102328.31
2022-10-17T03:10:07.590Z,102330.63
2022-10-17T03:13:35.029Z,102339.13
2022-10-17T03:16:43.328Z,102333.22
2022-10-17T03:20:07.703Z,102344.72
2022-10-17T03:23:13.095Z,102344.34
2022-10-17T03:26:37.425Z,102347.47
2022-10-17T03:29:43.508Z,102353.34
2022-10-17T03:33:08.105Z,102352.22
2022-10-17T03:36:17.300Z,102350.28
2022-10-17T03:39:42.985Z,102357.03
2022-10-17T03:42:48.883Z,102357.09
2022-10-17T03:46:13.960Z,102364.16
2022-10-17T03:49:20.727Z,102368.31
2022-10-17T03:52:45.033Z,102366.25
2022-10-17T03:55:50.924Z,102368.81
2022-10-17T03:59:15.510Z,102374.34
2022-10-17T04:02:27.331Z,102375.56
2022-10-17T04:05:51.390Z,102376.47
2022-10-17T04:08:57.302Z,102378.91
2022-10-17T04:12:06.553Z,102387.59
2022-10-17T04:15:15.178Z,102384.28
2022-10-17T04:18:20.547Z,102392.75
2022-10-17T04:21:28.474Z,102390.72
2022-10-17T04:24:35.046Z,102392.41
2022-10-17T04:27:46.835Z,102391.84
2022-10-17T04:31:03.760Z,102389.19
2022-10-17T04:34:14.812Z,102396.44
2022-10-17T04:37:19.973Z,102396.44
2022-10-17T04:40:27.623Z,102399.56
2022-10-17T04:43:36.971Z,102409.00
2022-10-17T04:46:42.305Z,102413.16
2022-10-17T04:49:47.474Z,102407.47
2022-10-17T04:52:54.536Z,102417.34
2022-10-17T04:56:00.204Z,102418.59
2022-10-17T04:59:05.584Z,102433.16
2022-10-17T05:02:10.734Z,102435.22
2022-10-17T05:05:16.110Z,102434.00
2022-10-17T05:08:24.090Z,102444.72
2022-10-17T05:11:30.517Z,102437.88
2022-10-17T05:14:35.611Z,102435.84
2022-10-17T05:17:41.480Z,102444.69
2022-10-17T05:20:46.829Z,102445.31
2022-10-17T05:23:52.794Z,102449.25
2022-10-17T05:26:58.328Z,102455.63
2022-10-17T05:30:03.782Z,102450.88
2022-10-17T05:33:12.331Z,102456.88
2022-10-17T05:36:18.888Z,102458.34
2022-10-17T05:39:24.701Z,102453.41
2022-10-17T05:42:31.245Z,102459.16
2022-10-17T05:45:37.625Z,102465.59
2022-10-17T05:48:44.946Z,102465.44
2022-10-17T05:51:50.193Z,102468.53
2022-10-17T05:54:55.482Z,102486.63
2022-10-17T05:58:02.071Z,102477.13
2022-10-17T06:01:13.692Z,102483.50
2022-10-17T06:04:19.214Z,102490.94
2022-10-17T06:07:24.962Z,102495.47
2022-10-17T06:10:31.217Z,102501.63
2022-10-17T06:13:39.347Z,102496.81
2022-10-17T06:16:50.909Z,102504.00
2022-10-17T06:19:57.543Z,102514.28
2022-10-17T06:23:03.212Z,102517.34
2022-10-17T06:26:34.571Z,102516.00
2022-10-17T06:29:40.803Z,102526.69
2022-10-17T06:32:46.362Z,102518.72
2022-10-17T06:35:56.649Z,102530.00
2022-10-17T06:39:03.535Z,102527.38
2022-10-17T06:42:15.318Z,102531.25
2022-10-17T06:45:48.245Z,102530.50
2022-10-17T06:49:11.072Z,102537.00
2022-10-17T06:52:22.726Z,102535.47
2022-10-17T06:55:54.364Z,102547.59
2022-10-17T06:59:24.177Z,102541.31
2022-10-17T07:02:37.088Z,102545.78
2022-10-17T07:05:42.180Z,102548.31
2022-10-17T07:08:47.697Z,102545.34
2022-10-17T07:11:56.437Z,102552.91
2022-10-17T07:15:04.541Z,102554.03
2022-10-17T07:18:11.308Z,102557.13
2022-10-17T07:21:18.391Z,102562.25
2022-10-17T07:24:24.243Z,102569.09
2022-10-17T07:27:43.238Z,102564.81
2022-10-17T07:30:52.005Z,102567.78
2022-10-17T07:34:01.000Z,102573.03
2022-10-17T07:37:07.866Z,102573.25
2022-10-17T07:40:13.631Z,102572.34
2022-10-17T07:43:19.031Z,102563.44
2022-10-17T07:46:25.601Z,102567.63
2022-10-17T07:49:31.328Z,102575.25
2022-10-17T07:52:36.577Z,102579.28
2022-10-17T07:55:43.061Z,102580.84
2022-10-17T07:58:48.639Z,102577.97
2022-10-17T08:01:57.398Z,102576.91
2022-10-17T08:05:02.455Z,102581.00
2022-10-17T08:08:08.817Z,102573.53
2022-10-17T08:11:16.341Z,102567.22
2022-10-17T08:14:22.082Z,102574.53
2022-10-17T08:17:28.248Z,102571.94
2022-10-17T08:20:33.572Z,102567.88
2022-10-17T08:23:39.968Z,102565.88
2022-10-17T08:26:48.287Z,102575.59
2022-10-17T08:29:56.093Z,102576.03
2022-10-17T08:33:01.653Z,102572.16
2022-10-17T08:36:08.886Z,102570.59
2022-10-17T08:39:14.182Z,102569.97
2022-10-17T08:42:55.437Z,102575.00
2022-10-17T08:46:08.031Z,102561.19
2022-10-17T08:49:37.382Z,102575.53
2022-10-17T08:52:52.425Z,102569.38
2022-10-17T08:56:00.630Z,102570.69
2022-10-17T08:59:17.795Z,102572.81
2022-10-17T09:02:40.309Z,102571.16
2022-10-17T09:06:02.141Z,102578.06
2022-10-17T09:09:25.297Z,102577.41
2022-10-17T09:12:57.404Z,102576.91
2022-10-17T09:16:15.395Z,102572.97
2022-10-17T09:19:24.870Z,102575.59
2022-10-17T09:23:04.782Z,102568.34
2022-10-17T09:26:11.973Z,102574.13
2022-10-17T09:29:30.873Z,102571.38
2022-10-17T09:32:41.422Z,102569.22
2022-10-17T09:35:48.319Z,102577.75
2022-10-17T09:39:00.258Z,102571.09
2022-10-17T09:42:05.842Z,102574.94
2022-10-17T09:45:11.400Z,102570.94
2022-10-17T09:48:25.556Z,102580.84
2022-10-17T09:51:32.693Z,102581.41
2022-10-17T09:55:03.602Z,102581.22
2022-10-17T09:58:10.856Z,102579.09
2022-10-17T10:01:24.225Z,102576.38
2022-10-17T10:04:30.468Z,102583.25
2022-10-17T10:07:45.103Z,102578.13
2022-10-17T10:10:59.480Z,102578.31
2022-10-17T10:14:13.925Z,102583.41
2022-10-17T10:17:44.440Z,102576.28
2022-10-17T10:21:14.305Z,102577.91
2022-10-17T10:24:20.640Z,102571.59
2022-10-17T10:27:27.608Z,102571.41
2022-10-17T10:30:36.195Z,102574.31
2022-10-17T10:33:49.453Z,102575.00
2022-10-17T10:37:16.990Z,102560.91
2022-10-17T10:40:38.317Z,102566.34
2022-10-17T10:43:48.061Z,102572.78
2022-10-17T10:47:16.953Z,102571.00
2022-10-17T10:50:34.754Z,102570.66
2022-10-17T10:54:00.225Z,102566.72
2022-10-17T10:57:12.144Z,102568.44
2022-10-17T11:00:23.917Z,102559.69
2022-10-17T11:03:51.508Z,102564.88
2022-10-17T11:07:13.919Z,102565.75
2022-10-17T11:10:58.462Z,102564.78
2022-10-17T11:14:41.446Z,102565.56
2022-10-17T11:17:57.409Z,102558.94
2022-10-17T11:21:36.974Z,102558.09
2022-10-17T11:25:11.853Z,102547.00
2022-10-17T11:28:20.999Z,102559.97
2022-10-17T11:31:33.218Z,102544.34
2022-10-17T11:35:01.377Z,102546.16
2022-10-17T11:38:18.316Z,102534.63
2022-10-17T11:41:45.907Z,102540.75
2022-10-17T11:45:06.914Z,102537.41
2022-10-17T11:48:20.997Z,102534.22
2022-10-17T11:54:58.297Z,102530.81
2022-10-17T11:58:16.128Z,102530.50
2022-10-17T12:01:53.001Z,102520.75
2022-10-17T12:05:14.086Z,102525.63
2022-10-17T12:08:38.168Z,102517.50
2022-10-17T12:11:55.959Z,102518.09
2022-10-17T12:15:14.105Z,102514.53
2022-10-17T12:18:19.709Z,102528.69
2022-10-17T12:21:27.323Z,102521.13
2022-10-17T12:24:44.913Z,102506.25
2022-10-17T12:27:51.485Z,102514.94
2022-10-17T12:31:13.376Z,102516.03
2022-10-17T12:34:24.249Z,102510.34
2022-10-17T12:37:51.269Z,102510.31
2022-10-17T12:41:00.989Z,102513.78
2022-10-17T12:44:15.553Z,102508.16
2022-10-17T12:47:36.964Z,102503.00
2022-10-17T12:51:30.739Z,102498.91
2022-10-17T12:54:27.420Z,102501.91
2022-10-17T12:57:38.946Z,102498.91
2022-10-17T13:01:05.309Z,102498.63
2022-10-17T13:04:16.604Z,102493.75
2022-10-17T13:07:23.943Z,102493.19
2022-10-17T13:10:34.165Z,102486.16
2022-10-17T13:13:49.167Z,102488.06
2022-10-17T13:17:06.552Z,102484.22
2022-10-17T13:20:29.056Z,102483.16
2022-10-17T13:23:38.314Z,102475.00
2022-10-17T13:26:46.060Z,102479.34
2022-10-17T13:29:51.186Z,102474.69
2022-10-17T13:32:57.569Z,102477.66
2022-10-17T13:36:08.053Z,102472.50
2022-10-17T13:39:23.151Z,102473.91
2022-10-17T13:42:40.749Z,102480.66
2022-10-17T13:45:52.801Z,102479.34
2022-10-17T13:49:00.582Z,102476.63
2022-10-17T13:52:16.112Z,102479.06
2022-10-17T13:55:22.295Z,102471.97
2022-10-17T13:58:35.543Z,102469.28
2022-10-17T14:01:41.230Z,102466.81
2022-10-17T14:08:22.891Z,102476.06
2022-10-17T14:11:41.773Z,102464.38
2022-10-17T14:18:33.286Z,102458.38
2022-10-17T14:21:44.671Z,102457.03
2022-10-17T14:24:53.506Z,102454.03
2022-10-17T14:28:08.249Z,102456.22
2022-10-17T14:31:26.053Z,102452.41
2022-10-17T14:34:37.697Z,102452.97
2022-10-17T14:37:46.664Z,102456.22
2022-10-17T14:41:09.826Z,102457.03
2022-10-17T14:44:31.161Z,102466.00
2022-10-17T14:47:43.524Z,102466.03
2022-10-17T14:51:16.677Z,102460.03
2022-10-17T14:54:29.523Z,102462.75
2022-10-17T14:57:43.630Z,102461.69
2022-10-17T15:00:49.241Z,102463.03
2022-10-17T15:03:54.371Z,102452.16
2022-10-17T15:06:59.633Z,102453.53
2022-10-17T15:10:06.334Z,102458.13
2022-10-17T15:13:27.807Z,102460.03
2022-10-17T15:16:35.476Z,102450.25
2022-10-17T15:19:40.502Z,102449.66
2022-10-17T15:22:46.124Z,102451.56
2022-10-17T15:25:52.431Z,102448.28
2022-10-17T15:28:59.276Z,102447.47
2022-10-17T15:32:04.512Z,102448.56
2022-10-17T15:35:10.032Z,102449.63
2022-10-17T15:38:18.547Z,102439.56
2022-10-17T15:41:27.064Z,102442.28
2022-10-17T15:44:33.524Z,102446.59
2022-10-17T15:47:39.290Z,102443.88
2022-10-17T15:50:45.777Z,102438.94
2022-10-17T15:53:52.948Z,102429.44
2022-10-17T15:56:58.695Z,102442.69
2022-10-17T16:00:07.009Z,102437.22
2022-10-17T16:03:14.577Z,102441.75
2022-10-17T16:06:21.801Z,102452.06
2022-10-17T16:09:28.145Z,102448.47
2022-10-17T16:12:41.452Z,102451.97
2022-10-17T16:15:47.045Z,102460.56
2022-10-17T16:18:55.666Z,102449.63
2022-10-17T16:22:04.505Z,102451.66
2022-10-17T16:25:28.606Z,102461.06
2022-10-17T16:28:34.977Z,102457.41
2022-10-17T16:31:43.590Z,102455.94
2022-10-17T16:34:58.558Z,102459.94
2022-10-17T16:38:17.492Z,102464.22
2022-10-17T16:41:34.423Z,102457.44
2022-10-17T16:44:43.167Z,102456.81
2022-10-17T16:48:05.200Z,102460.25
2022-10-17T16:52:00.789Z,102460.25
2022-10-17T16:55:10.581Z,102459.88
2022-10-17T16:58:16.066Z,102461.44
2022-10-17T17:01:24.024Z,102465.72
2022-10-17T17:04:29.729Z,102465.03
2022-10-17T17:07:35.954Z,102467.34
2022-10-17T17:10:47.621Z,102467.84
2022-10-17T17:13:59.168Z,102461.81
2022-10-17T17:17:04.674Z,102470.66
2022-10-17T17:20:10.652Z,102463.66
2022-10-17T17:23:16.947Z,102469.66
2022-10-17T17:26:23.436Z,102464.47
2022-10-17T17:29:29.091Z,102463.66
2022-10-17T17:32:34.099Z,102463.34
2022-10-17T17:35:40.636Z,102460.88
2022-10-17T17:38:47.058Z,102470.56
2022-10-17T17:41:52.525Z,102458.59
2022-10-17T17:44:57.987Z,102469.28
2022-10-17T17:48:04.006Z,102470.09
2022-10-17T17:51:12.099Z,102473.06
2022-10-17T17:54:17.634Z,102468.78
2022-10-17T17:57:23.358Z,102472.53
2022-10-17T18:00:29.437Z,102473.09
2022-10-17T18:03:35.035Z,102479.78
2022-10-17T18:06:40.900Z,102484.63
2022-10-17T18:09:46.016Z,102484.13
2022-10-17T18:12:51.246Z,102485.09
2022-10-17T18:16:01.442Z,102487.59
2022-10-17T18:19:11.618Z,102488.31
2022-10-17T18:22:19.981Z,102490.44
2022-10-17T18:25:27.950Z,102486.91
2022-10-17T18:28:36.652Z,102491.22
2022-10-17T18:31:42.446Z,102489.09
2022-10-17T18:34:47.229Z,102490.81
2022-10-17T18:37:52.417Z,102499.34
2022-10-17T18:41:18.516Z,102506.28
2022-10-17T18:44:24.134Z,102502.69
2022-10-17T18:47:30.062Z,102502.25
2022-10-17T18:50:39.086Z,102496.00
2022-10-17T18:53:47.994Z,102503.66
2022-10-17T18:56:55.234Z,102501.06
2022-10-17T19:00:00.879Z,102504.69
2022-10-17T19:03:08.148Z,102499.78
2022-10-17T19:06:19.899Z,102505.66
2022-10-17T19:09:25.465Z,102508.47
2022-10-17T19:12:31.100Z,102515.50
2022-10-17T19:15:37.284Z,102505.69
2022-10-17T19:18:43.797Z,102513.19
2022-10-17T19:21:50.493Z,102513.53
2022-10-17T19:24:56.175Z,102508.88
2022-10-17T19:28:01.842Z,102507.34
2022-10-17T19:31:07.668Z,102528.81
2022-10-17T19:34:14.822Z,102515.31
2022-10-17T19:37:19.933Z,102514.72
2022-10-17T19:40:25.434Z,102514.94
2022-10-17T19:43:31.253Z,102518.56
2022-10-17T19:46:37.514Z,102511.19
2022-10-17T19:49:47.687Z,102514.63
2022-10-17T19:52:55.477Z,102519.66
2022-10-17T19:56:02.194Z,102523.03
2022-10-17T19:59:09.645Z,102516.72
2022-10-17T20:02:16.070Z,102513.09
2022-10-17T20:05:25.962Z,102505.47
2022-10-17T20:08:33.429Z,102512.03
2022-10-17T20:11:38.485Z,102506.38
2022-10-17T20:14:44.450Z,102503.25
2022-10-17T20:17:49.878Z,102504.88
2022-10-17T20:20:56.462Z,102502.88
2022-10-17T20:24:03.977Z,102506.06
2022-10-17T20:27:09.549Z,102507.59
2022-10-17T20:30:15.265Z,102503.22
2022-10-17T20:33:20.841Z,102515.78
2022-10-17T20:36:27.219Z,102519.19
2022-10-17T20:39:32.868Z,102520.81
2022-10-17T20:42:38.585Z,102518.34
2022-10-17T20:45:51.510Z,102511.69
2022-10-17T20:48:58.995Z,102521.16
2022-10-17T20:52:04.731Z,102519.88
2022-10-17T20:55:10.506Z,102523.03
2022-10-17T20:58:16.049Z,102525.63
2022-10-17T21:01:22.682Z,102522.09
2022-10-17T21:04:47.005Z,102527.00
2022-10-17T21:07:52.850Z,102534.28
2022-10-17T21:11:13.630Z,102527.06
2022-10-17T21:14:19.370Z,102524.84
2022-10-17T21:17:25.594Z,102519.00
2022-10-17T21:20:31.383Z,102519.59
2022-10-17T21:23:37.270Z,102523.56
2022-10-17T21:26:44.101Z,102516.41
2022-10-17T21:29:49.995Z,102520.50
2022-10-17T21:32:55.904Z,102525.03
2022-10-17T21:36:01.498Z,102522.13
2022-10-17T21:42:19.577Z,102523.53
2022-10-17T21:45:26.241Z,102524.44
2022-10-17T21:48:33.119Z,102517.66
2022-10-17T21:51:39.429Z,102524.91
2022-10-17T21:54:45.067Z,102514.25
2022-10-17T21:57:52.133Z,102514.28
2022-10-17T22:01:12.665Z,102513.31
2022-10-17T22:04:20.054Z,102516.72
2022-10-17T22:07:25.983Z,102518.63
2022-10-17T22:10:31.780Z,102512.06
2022-10-17T22:13:38.517Z,102508.78
2022-10-17T22:16:48.048Z,102511.00
2022-10-17T22:19:53.365Z,102496.97
2022-10-17T22:22:59.282Z,102505.31
2022-10-17T22:26:06.092Z,102503.03
2022-10-17T22:29:12.221Z,102498.44
2022-10-17T22:32:21.512Z,102506.81
2022-10-17T22:35:28.590Z,102509.06
2022-10-17T22:38:34.825Z,102514.56
2022-10-17T22:41:40.307Z,102506.75
2022-10-17T22:44:47.010Z,102511.91
2022-10-17T22:47:54.072Z,102504.13
2022-10-17T22:51:00.469Z,102501.31
2022-10-17T22:54:06.295Z,102502.13
2022-10-17T22:57:13.039Z,102504.00
2022-10-17T23:00:18.573Z,102500.94
2022-10-17T23:03:27.077Z,102504.28
2022-10-17T23:06:32.103Z,102495.31
2022-10-17T23:09:37.860Z,102503.38
2022-10-17T23:12:43.756Z,102503.75
2022-10-17T23:15:54.369Z,102506.84
2022-10-17T23:18:59.910Z,102499.28
2022-10-17T23:22:06.806Z,102493.59
2022-10-17T23:25:12.052Z,102494.63
2022-10-17T23:28:18.173Z,102493.84
2022-10-17T23:31:23.573Z,102488.28
2022-10-17T23:34:30.805Z,102496.13
2022-10-17T23:37:36.584Z,102486.19
2022-10-17T23:40:42.534Z,102481.84
2022-10-17T23:43:48.009Z,102482.16
2022-10-17T23:46:53.959Z,102485.28
2022-10-17T23:49:59.704Z,102481.56
2022-10-17T23:53:05.471Z,102488.13
2022-10-17T23:56:11.833Z,102481.50
2022-10-17T23:59:17.525Z,102484.84
